Time;durP1;ratioP1;P1;durP2;ratioP2;P2;SDS_P1;SDS_P2;PMS_P1;PMS_P2;Temp;Humidity;BMP_temperature;BMP_pressure;BME280_temperature;BME280_humidity;BME280_pressure;Samples;Min_cycle;Max_cycle;Signal;HPM_P1;HPM_P2
2023/04/22 00:02:03;;;;;;;2.50;1.70;;;12.20;99.90;;;;;;5067808;28;20504;-74
2023/04/22 00:04:49;;;;;;;2.90;1.70;;;12.10;99.90;;;;;;5061254;28;20440;-74
2023/04/22 00:07:34;;;;;;;6.40;1.87;;;12.10;99.90;;;;;;5065590;28;20449;-73
2023/04/22 00:10:22;;;;;;;2.77;2.00;;;12.10;99.90;;;;;;5066840;28;20453;-71
2023/04/22 00:13:07;;;;;;;2.77;1.90;;;12.20;99.90;;;;;;5066753;28;20833;-74
2023/04/22 00:15:53;;;;;;;2.20;1.67;;;12.10;99.90;;;;;;5061942;28;20474;-74
2023/04/22 00:18:39;;;;;;;4.53;1.80;;;12.10;99.90;;;;;;5068870;28;20448;-73
2023/04/22 00:21:26;;;;;;;3.70;1.87;;;12.10;99.90;;;;;;5064136;28;20419;-74
2023/04/22 00:24:11;;;;;;;5.57;1.60;;;12.10;99.90;;;;;;5062649;28;20819;-74
2023/04/22 00:26:58;;;;;;;3.13;2.00;;;12.10;99.90;;;;;;5065101;28;20445;-74
2023/04/22 00:29:44;;;;;;;3.63;1.97;;;12.00;99.90;;;;;;5066206;28;20778;-74
2023/04/22 00:32:29;;;;;;;3.73;2.10;;;12.00;99.90;;;;;;5065418;28;20486;-73
2023/04/22 00:35:15;;;;;;;2.60;1.57;;;12.00;99.90;;;;;;5062209;28;20454;-71
2023/04/22 00:38:00;;;;;;;2.53;1.60;;;12.10;99.90;;;;;;5064198;28;20458;-74
2023/04/22 00:40:46;;;;;;;2.60;1.73;;;12.00;99.90;;;;;;5066539;28;20436;-74
2023/04/22 00:43:33;;;;;;;4.60;1.80;;;12.10;99.90;;;;;;5063540;28;20471;-73
2023/04/22 00:46:20;;;;;;;2.53;1.70;;;12.10;99.90;;;;;;5062487;28;20914;-71
2023/04/22 00:49:06;;;;;;;7.90;1.77;;;12.10;99.90;;;;;;5063853;28;20445;-74
2023/04/22 00:51:52;;;;;;;2.17;1.40;;;12.10;99.90;;;;;;5063147;28;20424;-74
2023/04/22 00:54:38;;;;;;;2.23;1.63;;;12.10;99.90;;;;;;5061560;28;20521;-73
2023/04/22 00:57:24;;;;;;;6.53;2.17;;;12.20;99.90;;;;;;5064712;28;20458;-74
2023/04/22 01:00:12;;;;;;;2.63;1.67;;;12.20;99.90;;;;;;5064267;28;20456;-72
2023/04/22 01:02:57;;;;;;;2.77;1.50;;;12.20;99.90;;;;;;5061081;28;20415;-74
2023/04/22 01:05:45;;;;;;;2.40;1.70;;;12.20;99.90;;;;;;5058481;28;20447;-74
2023/04/22 01:08:30;;;;;;;2.47;1.77;;;12.10;99.90;;;;;;5065085;28;20436;-74
2023/04/22 01:11:16;;;;;;;4.17;1.70;;;12.00;99.90;;;;;;5065745;28;20449;-74
2023/04/22 01:14:02;;;;;;;2.60;1.90;;;11.80;99.90;;;;;;5062094;28;20468;-74
2023/04/22 01:16:52;;;;;;;3.73;2.77;;;11.60;99.90;;;;;;5062833;28;20527;-74
2023/04/22 01:19:38;;;;;;;3.20;2.37;;;11.60;99.90;;;;;;5059157;28;20472;-74
2023/04/22 01:22:26;;;;;;;2.87;2.20;;;11.60;99.90;;;;;;5059431;28;20890;-74
2023/04/22 01:25:13;;;;;;;3.57;2.20;;;11.50;99.90;;;;;;5057388;28;20474;-74
2023/04/22 01:27:59;;;;;;;4.17;2.60;;;11.50;99.90;;;;;;5063029;28;20477;-73
2023/04/22 01:30:45;;;;;;;4.70;3.20;;;11.50;99.90;;;;;;5058735;28;20410;-73
2023/04/22 01:33:31;;;;;;;3.40;2.57;;;11.50;99.90;;;;;;5063572;28;20443;-71
2023/04/22 01:36:17;;;;;;;6.57;2.77;;;11.60;99.90;;;;;;5060114;28;20802;-73
2023/04/22 01:39:03;;;;;;;5.70;2.70;;;11.60;99.90;;;;;;5063510;28;20467;-73
2023/04/22 01:41:50;;;;;;;4.37;2.30;;;11.70;99.90;;;;;;5061931;28;20582;-74
2023/04/22 01:44:35;;;;;;;2.77;2.10;;;11.80;99.90;;;;;;5060693;28;20916;-73
2023/04/22 01:47:21;;;;;;;4.90;2.60;;;11.70;99.90;;;;;;5063094;28;20570;-73
2023/04/22 01:50:08;;;;;;;3.37;2.37;;;11.80;99.90;;;;;;5063111;28;20430;-74
2023/04/22 01:52:53;;;;;;;3.50;2.33;;;11.70;99.90;;;;;;5068130;28;20595;-73
2023/04/22 01:55:39;;;;;;;3.10;2.27;;;11.70;99.90;;;;;;5059036;28;20557;-74
2023/04/22 01:58:29;;;;;;;4.73;2.30;;;11.70;99.90;;;;;;5063699;28;20419;-74
2023/04/22 02:01:14;;;;;;;3.50;2.40;;;11.60;99.90;;;;;;5062442;28;21092;-73
2023/04/22 02:04:00;;;;;;;8.23;2.20;;;11.60;99.90;;;;;;5059950;28;20819;-73
2023/04/22 02:06:46;;;;;;;3.70;2.50;;;11.70;99.90;;;;;;5065579;28;20790;-74
2023/04/22 02:09:33;;;;;;;6.50;4.30;;;11.60;99.90;;;;;;5069365;28;20447;-74
2023/04/22 02:12:18;;;;;;;3.00;2.30;;;11.60;99.90;;;;;;5066976;28;20439;-74
2023/04/22 02:15:06;;;;;;;3.73;2.83;;;11.60;99.90;;;;;;5061555;28;20521;-73
2023/04/22 02:17:52;;;;;;;3.00;1.90;;;11.50;99.90;;;;;;5069001;28;20781;-72
2023/04/22 02:20:38;;;;;;;8.07;2.90;;;11.50;99.90;;;;;;5064178;28;20484;-74
2023/04/22 02:23:24;;;;;;;6.37;2.50;;;11.40;99.90;;;;;;5062868;28;20800;-74
2023/04/22 02:26:10;;;;;;;2.57;2.03;;;11.40;99.90;;;;;;5061561;28;20512;-74
2023/04/22 02:28:56;;;;;;;3.20;2.40;;;11.30;99.90;;;;;;5064223;28;21042;-74
2023/04/22 02:31:43;;;;;;;13.33;3.80;;;11.40;99.90;;;;;;5068742;28;20456;-74
2023/04/22 02:34:29;;;;;;;4.07;2.60;;;11.40;99.90;;;;;;5065319;28;20468;-73
2023/04/22 02:37:15;;;;;;;4.70;2.60;;;11.40;99.90;;;;;;5067581;28;20435;-74
2023/04/22 02:40:00;;;;;;;4.73;2.50;;;11.50;99.90;;;;;;5065222;28;20579;-74
2023/04/22 02:42:47;;;;;;;3.23;2.03;;;11.40;99.90;;;;;;5069745;28;20436;-73
2023/04/22 02:45:33;;;;;;;3.30;2.27;;;11.40;99.90;;;;;;5060906;28;20427;-72
2023/04/22 02:48:20;;;;;;;5.10;2.83;;;11.40;99.90;;;;;;5069388;28;20439;-74
2023/04/22 02:51:06;;;;;;;3.50;2.00;;;11.30;99.90;;;;;;5064833;28;20438;-74
2023/04/22 02:53:52;;;;;;;5.60;2.57;;;11.50;99.90;;;;;;5064988;28;20851;-74
2023/04/22 02:56:38;;;;;;;3.97;2.40;;;11.40;99.90;;;;;;5069641;28;21065;-74
2023/04/22 02:59:23;;;;;;;2.93;2.00;;;11.30;99.90;;;;;;5068539;28;20992;-71
2023/04/22 03:02:10;;;;;;;3.53;2.57;;;11.40;99.90;;;;;;5065806;28;20523;-74
2023/04/22 03:04:57;;;;;;;3.13;2.20;;;11.40;99.90;;;;;;5060957;28;20435;-72
2023/04/22 03:07:43;;;;;;;4.10;2.30;;;11.30;99.90;;;;;;5066781;28;20943;-73
2023/04/22 03:10:29;;;;;;;4.00;2.23;;;11.40;99.90;;;;;;5067578;28;20434;-72
2023/04/22 03:13:14;;;;;;;3.70;2.50;;;11.30;99.90;;;;;;5065353;28;20932;-74
2023/04/22 03:16:00;;;;;;;3.37;2.27;;;11.20;99.90;;;;;;5061007;28;20971;-71
2023/04/22 03:18:46;;;;;;;3.87;2.10;;;11.20;99.90;;;;;;5069032;28;20954;-74
2023/04/22 03:21:33;;;;;;;26.57;3.00;;;11.10;99.90;;;;;;5065458;28;20514;-73
2023/04/22 03:24:18;;;;;;;4.50;2.50;;;11.20;99.90;;;;;;5060326;28;20451;-72
2023/04/22 03:27:04;;;;;;;6.07;2.67;;;11.20;99.90;;;;;;5067971;28;20964;-74
2023/04/22 03:29:50;;;;;;;5.00;2.50;;;11.20;99.90;;;;;;5065671;28;20465;-74
2023/04/22 03:32:36;;;;;;;5.30;2.67;;;11.10;99.90;;;;;;5067716;28;20419;-72
2023/04/22 03:35:21;;;;;;;3.70;2.47;;;11.00;99.90;;;;;;5063233;28;20439;-74
2023/04/22 03:38:08;;;;;;;4.73;2.33;;;11.00;99.90;;;;;;5061050;28;20428;-71
2023/04/22 03:40:54;;;;;;;4.10;3.00;;;10.80;99.90;;;;;;5068667;28;20454;-74
2023/04/22 03:43:39;;;;;;;4.90;3.03;;;10.80;99.90;;;;;;5062257;28;20536;-74
2023/04/22 03:46:25;;;;;;;3.73;2.63;;;10.80;99.90;;;;;;5065125;28;20422;-74
2023/04/22 03:49:12;;;;;;;3.20;2.57;;;10.70;99.90;;;;;;5069369;28;20940;-74
2023/04/22 03:51:57;;;;;;;4.47;3.10;;;10.70;99.90;;;;;;5066210;28;20807;-74
2023/04/22 03:54:45;;;;;;;7.13;3.50;;;10.80;99.90;;;;;;5061788;28;20543;-73
2023/04/22 03:57:30;;;;;;;4.13;2.70;;;10.70;99.90;;;;;;5065546;28;20412;-72
2023/04/22 04:00:16;;;;;;;4.50;2.30;;;10.70;99.90;;;;;;5064628;28;20475;-73
2023/04/22 04:03:02;;;;;;;4.53;2.83;;;10.60;99.90;;;;;;5058652;28;20769;-71
2023/04/22 04:05:47;;;;;;;3.87;3.30;;;10.50;99.90;;;;;;5063271;28;20433;-72
2023/04/22 04:08:33;;;;;;;3.63;3.10;;;10.50;99.90;;;;;;5071269;28;20415;-74
2023/04/22 04:11:20;;;;;;;3.37;2.93;;;10.50;99.90;;;;;;5064116;28;20433;-74
2023/04/22 04:14:06;;;;;;;4.47;3.20;;;10.60;99.90;;;;;;5066709;28;20468;-72
2023/04/22 04:16:52;;;;;;;5.10;2.73;;;10.60;99.90;;;;;;5069467;28;20538;-72
2023/04/22 04:19:38;;;;;;;4.37;3.30;;;10.50;99.90;;;;;;5066558;28;20468;-74
2023/04/22 04:22:23;;;;;;;5.73;2.93;;;10.40;99.90;;;;;;5067020;28;20427;-72
2023/04/22 04:25:10;;;;;;;3.70;2.97;;;10.40;99.90;;;;;;5083009;22;20497;-73
2023/04/22 04:27:57;;;;;;;5.00;2.50;;;10.30;99.90;;;;;;5063883;28;20477;-72
2023/04/22 04:30:43;;;;;;;9.23;3.30;;;10.20;99.90;;;;;;5066392;28;20492;-73
2023/04/22 04:33:30;;;;;;;4.93;2.90;;;10.20;99.90;;;;;;5062193;28;20461;-73
2023/04/22 04:36:16;;;;;;;4.90;3.03;;;10.30;99.90;;;;;;5064023;28;20453;-73
2023/04/22 04:39:02;;;;;;;8.60;2.60;;;10.30;99.90;;;;;;5062288;28;20430;-73
2023/04/22 04:41:48;;;;;;;4.50;3.17;;;10.40;99.90;;;;;;5063931;28;20785;-73
2023/04/22 04:44:35;;;;;;;7.73;2.60;;;10.30;99.90;;;;;;5058881;28;20442;-73
2023/04/22 04:47:21;;;;;;;5.60;2.83;;;10.30;99.90;;;;;;5067819;28;20419;-73
2023/04/22 04:50:07;;;;;;;3.50;2.60;;;10.30;99.90;;;;;;5064877;28;20559;-73
2023/04/22 04:52:53;;;;;;;3.83;2.53;;;10.30;99.90;;;;;;5061703;28;20993;-73
2023/04/22 04:55:39;;;;;;;2.90;2.30;;;10.30;99.90;;;;;;5058656;28;20454;-73
2023/04/22 04:58:25;;;;;;;3.60;2.50;;;10.30;99.90;;;;;;5060104;28;20547;-73
2023/04/22 05:01:12;;;;;;;3.67;2.87;;;10.20;99.90;;;;;;5057622;28;21000;-73
2023/04/22 05:03:58;;;;;;;5.40;2.77;;;10.20;99.90;;;;;;5058345;28;20568;-73
2023/04/22 05:06:44;;;;;;;6.10;3.10;;;10.20;99.90;;;;;;5060898;28;20806;-74
2023/04/22 05:09:31;;;;;;;3.80;2.90;;;10.30;99.90;;;;;;5064082;28;20415;-73
2023/04/22 05:12:17;;;;;;;3.37;2.70;;;10.30;99.90;;;;;;5059107;28;20449;-73
2023/04/22 05:15:03;;;;;;;4.43;2.83;;;10.30;99.90;;;;;;5065051;28;20442;-73
2023/04/22 05:17:50;;;;;;;3.63;2.57;;;10.40;99.90;;;;;;5061770;28;20419;-74
2023/04/22 05:20:36;;;;;;;3.90;3.23;;;10.40;99.90;;;;;;5060952;28;20964;-73
2023/04/22 05:23:22;;;;;;;5.50;3.43;;;10.40;99.90;;;;;;5064613;28;20416;-73
2023/04/22 05:26:07;;;;;;;5.27;3.33;;;10.40;99.90;;;;;;5070520;28;20444;-73
2023/04/22 05:28:53;;;;;;;4.00;2.90;;;10.40;99.90;;;;;;5060289;28;20687;-73
2023/04/22 05:31:39;;;;;;;4.90;2.83;;;10.40;99.90;;;;;;5062008;28;20443;-73
2023/04/22 05:34:26;;;;;;;3.70;2.80;;;10.40;99.90;;;;;;5061949;28;20447;-74
2023/04/22 05:37:11;;;;;;;3.10;2.70;;;10.50;99.90;;;;;;5061971;28;20495;-73
2023/04/22 05:39:57;;;;;;;4.73;3.23;;;10.60;99.90;;;;;;5058433;28;20469;-73
2023/04/22 05:42:43;;;;;;;4.37;2.77;;;10.60;99.90;;;;;;5061032;28;20425;-73
2023/04/22 05:45:29;;;;;;;3.60;3.00;;;10.70;99.90;;;;;;5062201;28;20445;-74
2023/04/22 05:48:14;;;;;;;8.50;2.90;;;10.80;99.90;;;;;;5065011;28;20587;-73
2023/04/22 05:51:01;;;;;;;3.73;2.90;;;10.90;99.90;;;;;;5064941;28;20456;-73
2023/04/22 05:53:47;;;;;;;4.47;3.10;;;10.90;99.90;;;;;;5058738;28;20464;-73
2023/04/22 05:56:33;;;;;;;6.53;4.07;;;10.90;99.90;;;;;;5057555;28;20996;-73
2023/04/22 05:59:18;;;;;;;4.90;3.10;;;10.90;99.90;;;;;;5061463;28;20925;-73
2023/04/22 06:02:03;;;;;;;7.60;3.40;;;11.00;99.90;;;;;;5055612;28;20444;-73
2023/04/22 06:04:49;;;;;;;4.23;3.07;;;11.00;99.90;;;;;;5059462;28;20468;-73
2023/04/22 06:07:36;;;;;;;3.43;3.13;;;11.00;99.90;;;;;;5068722;28;20465;-73
2023/04/22 06:10:22;;;;;;;4.13;3.57;;;11.10;99.90;;;;;;5072925;28;20423;-73
2023/04/22 06:13:08;;;;;;;5.70;4.33;;;11.10;99.90;;;;;;5066540;28;20451;-73
2023/04/22 06:15:53;;;;;;;6.70;3.40;;;11.20;99.90;;;;;;5069388;28;20407;-73
2023/04/22 06:18:39;;;;;;;6.30;2.90;;;11.20;99.90;;;;;;5067957;28;20429;-73
2023/04/22 06:21:24;;;;;;;4.87;3.57;;;11.30;99.90;;;;;;5065604;28;20612;-73
2023/04/22 06:24:12;;;;;;;5.00;3.60;;;11.30;99.90;;;;;;5069526;28;20584;-73
2023/04/22 06:26:58;;;;;;;3.97;3.20;;;11.40;99.90;;;;;;5068569;28;20426;-73
2023/04/22 06:29:43;;;;;;;4.80;3.87;;;11.50;99.90;;;;;;5070516;28;20456;-73
2023/04/22 06:32:29;;;;;;;3.63;2.80;;;11.50;99.90;;;;;;5070560;28;21060;-73
2023/04/22 06:35:15;;;;;;;7.53;3.07;;;11.60;99.90;;;;;;5066834;28;20974;-74
2023/04/22 06:38:01;;;;;;;3.93;3.13;;;11.70;99.90;;;;;;5063924;28;20449;-73
2023/04/22 06:40:48;;;;;;;6.17;3.70;;;11.80;99.90;;;;;;5063129;28;21041;-73
2023/04/22 06:43:33;;;;;;;5.70;3.80;;;11.90;99.90;;;;;;5065515;28;20420;-73
2023/04/22 06:46:19;;;;;;;5.57;3.70;;;12.00;99.90;;;;;;5061542;28;21036;-73
2023/04/22 06:49:05;;;;;;;7.20;4.20;;;12.00;99.90;;;;;;5061968;28;20423;-73
2023/04/22 06:51:50;;;;;;;5.37;3.80;;;12.20;99.90;;;;;;5058466;28;20538;-73
2023/04/22 06:54:37;;;;;;;4.63;3.80;;;12.30;99.90;;;;;;5063811;28;20459;-72
2023/04/22 06:57:23;;;;;;;7.80;3.60;;;12.50;99.90;;;;;;5065782;28;20602;-72
2023/04/22 07:00:10;;;;;;;6.37;4.20;;;12.60;99.90;;;;;;5061323;28;20629;-73
2023/04/22 07:02:55;;;;;;;4.30;3.80;;;12.80;99.90;;;;;;5069275;28;20531;-73
2023/04/22 07:05:41;;;;;;;5.07;4.33;;;13.00;99.90;;;;;;5070779;28;20437;-74
2023/04/22 07:08:27;;;;;;;18.03;4.50;;;13.10;99.90;;;;;;5069919;28;20803;-72
2023/04/22 07:11:13;;;;;;;5.73;4.60;;;13.20;99.90;;;;;;5062924;28;20450;-73
2023/04/22 07:14:00;;;;;;;4.90;3.73;;;13.40;99.90;;;;;;5071847;28;20474;-73
2023/04/22 07:16:46;;;;;;;6.73;4.63;;;13.50;99.90;;;;;;5066360;28;20450;-73
2023/04/22 07:19:32;;;;;;;15.57;4.23;;;13.60;99.90;;;;;;5062253;28;20469;-73
2023/04/22 07:22:18;;;;;;;10.10;5.27;;;13.70;99.90;;;;;;5058535;28;20571;-73
2023/04/22 07:25:06;;;;;;;9.60;4.17;;;13.90;99.90;;;;;;5064016;28;20476;-72
2023/04/22 07:27:51;;;;;;;5.00;4.17;;;14.10;99.90;;;;;;5058539;28;20454;-73
2023/04/22 07:30:38;;;;;;;4.80;3.50;;;14.30;99.90;;;;;;5057722;28;20411;-73
2023/04/22 07:33:24;;;;;;;5.63;4.13;;;14.50;99.90;;;;;;5068463;28;20453;-73
2023/04/22 07:36:10;;;;;;;7.20;4.07;;;14.60;99.90;;;;;;5059187;28;20997;-73
2023/04/22 07:38:55;;;;;;;6.00;3.53;;;14.80;99.90;;;;;;5066080;28;20420;-73
2023/04/22 07:41:41;;;;;;;8.23;4.67;;;14.90;99.90;;;;;;5064968;28;20951;-72
2023/04/22 07:44:26;;;;;;;3.43;2.83;;;14.90;99.90;;;;;;5061991;28;20863;-73
2023/04/22 07:47:14;;;;;;;5.07;3.40;;;15.00;99.90;;;;;;5063671;28;20474;-72
2023/04/22 07:49:59;;;;;;;5.70;3.57;;;15.10;99.90;;;;;;5066758;28;20442;-72
2023/04/22 07:52:45;;;;;;;4.77;3.40;;;15.20;99.90;;;;;;5062436;28;21078;-73
2023/04/22 07:55:30;;;;;;;4.37;3.13;;;15.40;99.90;;;;;;5059020;28;20481;-73
2023/04/22 07:58:16;;;;;;;5.67;3.77;;;15.60;99.90;;;;;;5060637;28;20463;-72
2023/04/22 08:01:02;;;;;;;5.13;3.50;;;15.90;99.90;;;;;;5059082;28;21083;-73
2023/04/22 08:03:49;;;;;;;5.17;3.53;;;16.10;98.80;;;;;;5060859;28;20808;-73
2023/04/22 08:06:34;;;;;;;3.50;2.50;;;16.30;97.00;;;;;;5066238;28;20450;-72
2023/04/22 08:09:20;;;;;;;3.53;2.70;;;16.50;93.10;;;;;;5066854;28;20839;-73
2023/04/22 08:12:06;;;;;;;5.03;3.20;;;16.60;91.10;;;;;;5063989;28;20663;-72
2023/04/22 08:14:51;;;;;;;4.73;3.20;;;16.70;90.50;;;;;;5060713;28;20518;-73
2023/04/22 08:17:37;;;;;;;7.63;3.37;;;16.90;88.50;;;;;;5062485;28;20457;-72
2023/04/22 08:20:24;;;;;;;4.40;3.30;;;17.00;89.70;;;;;;5058356;28;20491;-74
2023/04/22 08:23:10;;;;;;;3.87;2.47;;;17.10;90.20;;;;;;5063624;28;20444;-73
2023/04/22 08:25:56;;;;;;;3.93;3.10;;;17.20;81.30;;;;;;5063737;28;20469;-72
2023/04/22 08:28:42;;;;;;;5.17;3.17;;;17.20;78.80;;;;;;5064292;28;20823;-73
2023/04/22 08:31:27;;;;;;;5.20;2.63;;;17.30;76.90;;;;;;5058348;28;20835;-72
2023/04/22 08:34:12;;;;;;;6.03;3.60;;;17.40;78.60;;;;;;5061735;28;20575;-73
2023/04/22 08:37:00;;;;;;;3.43;3.03;;;17.40;75.30;;;;;;5063195;28;20421;-73
2023/04/22 08:39:45;;;;;;;4.93;2.87;;;17.50;74.60;;;;;;5064615;28;20938;-73
2023/04/22 08:42:31;;;;;;;5.50;3.47;;;17.60;76.30;;;;;;5069420;28;20442;-73
2023/04/22 08:45:17;;;;;;;5.57;4.20;;;17.70;75.10;;;;;;5061639;28;20930;-72
2023/04/22 08:48:04;;;;;;;8.70;4.50;;;17.80;77.60;;;;;;5071395;28;20800;-71
2023/04/22 08:50:50;;;;;;;6.60;3.97;;;17.80;78.50;;;;;;5062763;28;20449;-72
2023/04/22 08:53:37;;;;;;;6.30;4.40;;;17.80;76.60;;;;;;5062499;28;20439;-72
2023/04/22 08:56:25;;;;;;;10.80;4.77;;;17.70;77.00;;;;;;5058993;28;20443;-73
2023/04/22 08:59:11;;;;;;;5.70;4.43;;;17.80;79.00;;;;;;5061996;28;21018;-73
2023/04/22 09:01:58;;;;;;;5.20;4.27;;;17.90;77.60;;;;;;5060761;28;20474;-72
2023/04/22 09:04:47;;;;;;;8.43;4.80;;;17.90;77.60;;;;;;5066951;28;20553;-72
2023/04/22 09:07:35;;;;;;;6.60;4.20;;;18.00;77.70;;;;;;5067314;28;20442;-73
2023/04/22 09:10:22;;;;;;;6.70;3.40;;;18.10;76.50;;;;;;5060858;28;20445;-73
2023/04/22 09:13:08;;;;;;;7.80;4.00;;;18.10;74.20;;;;;;5062141;28;20469;-72
2023/04/22 09:15:54;;;;;;;6.20;4.17;;;18.20;75.00;;;;;;5061258;28;20433;-72
2023/04/22 09:18:41;;;;;;;8.20;4.80;;;18.20;71.80;;;;;;5068370;28;20466;-73
2023/04/22 09:21:28;;;;;;;6.00;4.27;;;18.40;76.10;;;;;;5069091;28;20490;-72
2023/04/22 09:24:13;;;;;;;5.33;3.90;;;18.40;72.40;;;;;;5077060;28;20465;-72
2023/04/22 09:27:02;;;;;;;9.60;4.50;;;18.40;73.30;;;;;;5065521;28;20401;-72
2023/04/22 09:29:49;;;;;;;5.27;3.47;;;18.50;71.60;;;;;;5062177;28;20939;-72
2023/04/22 09:32:35;;;;;;;4.40;3.10;;;18.70;71.50;;;;;;5058669;28;20446;-73
2023/04/22 09:35:26;;;;;;;3.80;2.90;;;18.80;70.40;;;;;;5071243;28;20525;-73
2023/04/22 09:38:13;;;;;;;6.30;3.57;;;18.90;67.30;;;;;;5064246;28;20443;-72
2023/04/22 09:40:59;;;;;;;4.30;2.93;;;19.00;64.80;;;;;;5067110;28;20466;-73
2023/04/22 09:43:46;;;;;;;4.93;3.43;;;19.10;62.50;;;;;;5069323;28;20446;-73
2023/04/22 09:46:33;;;;;;;4.00;3.20;;;19.20;62.80;;;;;;5067500;28;20932;-72
2023/04/22 09:49:20;;;;;;;5.20;3.07;;;19.20;67.40;;;;;;5065768;28;20433;-73
2023/04/22 09:52:06;;;;;;;4.00;3.07;;;19.30;61.10;;;;;;5061761;28;20493;-72
2023/04/22 09:54:53;;;;;;;3.47;2.87;;;19.30;60.70;;;;;;5074565;28;20939;-72
2023/04/22 09:57:39;;;;;;;3.70;2.63;;;19.40;58.60;;;;;;5070332;28;20454;-72
2023/04/22 10:00:29;;;;;;;4.70;3.10;;;19.50;58.30;;;;;;5067744;28;20425;-73
2023/04/22 10:03:15;;;;;;;6.40;2.90;;;19.60;59.60;;;;;;5066026;28;20963;-73
2023/04/22 10:06:02;;;;;;;6.50;2.50;;;19.80;55.00;;;;;;5064272;28;20452;-73
2023/04/22 10:08:47;;;;;;;2.83;2.17;;;20.00;54.80;;;;;;5066777;28;20422;-73
2023/04/22 10:11:34;;;;;;;3.33;2.53;;;20.10;47.00;;;;;;5061295;28;20579;-73
2023/04/22 10:14:21;;;;;;;3.80;2.47;;;20.20;44.60;;;;;;5060466;28;20469;-74
2023/04/22 10:17:09;;;;;;;3.93;2.60;;;20.30;42.20;;;;;;5060733;28;21583;-73
2023/04/22 10:19:55;;;;;;;4.00;2.23;;;20.40;41.40;;;;;;5061536;28;20447;-74
2023/04/22 10:22:42;;;;;;;8.03;2.00;;;20.50;33.00;;;;;;5064437;28;20477;-72
2023/04/22 10:25:28;;;;;;;4.30;1.90;;;20.60;34.30;;;;;;5077878;22;20991;-75
2023/04/22 10:28:16;;;;;;;2.70;1.83;;;20.70;29.00;;;;;;5060621;28;20805;-74
2023/04/22 10:31:06;;;;;;;4.60;1.60;;;20.90;28.30;;;;;;5065960;28;20452;-73
2023/04/22 10:34:09;;;;;;;4.73;2.33;;;20.80;27.10;;;;;;5058248;28;20601;-73
2023/04/22 10:37:00;;;;;;;4.40;2.10;;;20.80;26.30;;;;;;5043514;28;20811;-74
2023/04/22 10:40:07;;;;;;;3.17;1.73;;;20.80;25.80;;;;;;5048611;28;20443;-73
2023/04/22 10:42:54;;;;;;;3.20;1.63;;;21.00;26.40;;;;;;5044007;28;20466;-73
2023/04/22 10:45:40;;;;;;;2.93;1.90;;;21.10;23.70;;;;;;5040454;28;20461;-74
2023/04/22 10:48:49;;;;;;;3.90;1.80;;;21.20;25.40;;;;;;5053144;28;20439;-71
2023/04/22 10:51:40;;;;;;;4.30;1.90;;;21.30;24.40;;;;;;5039973;28;20445;-73
2023/04/22 10:55:00;;;;;;;5.90;2.00;;;21.40;23.90;;;;;;5039101;28;20557;-70
2023/04/22 10:57:47;;;;;;;2.90;1.70;;;21.50;23.10;;;;;;5002429;28;20523;-73
2023/04/22 11:00:40;;;;;;;6.33;2.00;;;21.60;23.00;;;;;;4997308;28;20466;-73
2023/04/22 11:03:28;;;;;;;5.60;2.10;;;21.70;23.00;;;;;;5039691;28;20492;-73
2023/04/22 11:06:15;;;;;;;4.20;2.07;;;21.70;23.40;;;;;;5045809;28;20470;-74
2023/04/22 11:09:11;;;;;;;4.63;1.70;;;21.80;24.40;;;;;;5048774;28;20811;-73
2023/04/22 11:12:42;;;;;;;4.73;2.27;;;21.90;23.00;;;;;;5042921;28;20453;-71
2023/04/22 11:15:29;;;;;;;5.50;2.07;;;21.90;24.30;;;;;;5048238;28;20494;-73
2023/04/22 11:18:18;;;;;;;5.47;2.00;;;22.00;23.00;;;;;;5049256;28;20493;-74
2023/04/22 11:21:07;;;;;;;3.30;1.93;;;22.00;24.20;;;;;;5044227;28;20484;-73
2023/04/22 11:23:53;;;;;;;5.20;2.37;;;22.00;24.10;;;;;;5044435;28;20450;-73
2023/04/22 11:26:40;;;;;;;3.73;2.30;;;22.00;25.80;;;;;;5042681;28;20429;-73
2023/04/22 11:29:26;;;;;;;3.53;2.67;;;22.00;24.20;;;;;;5044409;28;20432;-72
2023/04/22 11:32:12;;;;;;;3.27;2.07;;;22.10;26.10;;;;;;5041306;28;20958;-73
2023/04/22 11:34:57;;;;;;;4.10;2.20;;;22.20;25.20;;;;;;5046253;28;20460;-73
2023/04/22 11:37:44;;;;;;;6.27;2.50;;;22.20;24.90;;;;;;5042217;28;20529;-69
2023/04/22 11:40:32;;;;;;;6.80;2.50;;;22.30;25.80;;;;;;5038025;28;20547;-71
2023/04/22 11:43:19;;;;;;;14.87;2.70;;;22.50;26.10;;;;;;5044447;28;21075;-74
2023/04/22 11:46:04;;;;;;;3.47;2.30;;;22.50;27.00;;;;;;5041152;28;20468;-73
2023/04/22 11:48:50;;;;;;;3.90;2.37;;;22.60;24.20;;;;;;5038605;28;20449;-74
2023/04/22 11:51:36;;;;;;;2.83;1.90;;;22.70;25.50;;;;;;5040414;28;20449;-74
2023/04/22 11:54:31;;;;;;;4.23;2.10;;;22.70;24.10;;;;;;5047062;28;20481;-73
2023/04/22 11:57:20;;;;;;;4.33;2.10;;;22.70;26.20;;;;;;5050762;28;20440;-70
2023/04/22 12:00:12;;;;;;;3.30;2.00;;;22.70;23.40;;;;;;5035426;28;20589;-74
2023/04/22 12:03:02;;;;;;;4.50;2.50;;;22.50;24.60;;;;;;5043416;28;21102;-73
2023/04/22 12:05:52;;;;;;;3.13;1.83;;;22.60;25.10;;;;;;5040608;28;20541;-72
2023/04/22 12:08:42;;;;;;;6.87;2.20;;;22.70;23.90;;;;;;5049307;28;20613;-74
2023/04/22 12:11:28;;;;;;;7.47;2.40;;;22.90;25.40;;;;;;5043311;28;20487;-73
2023/04/22 12:14:13;;;;;;;3.97;1.80;;;23.10;25.40;;;;;;5051308;28;20472;-73
2023/04/22 12:17:04;;;;;;;4.20;2.20;;;23.20;21.30;;;;;;5048871;28;20482;-72
2023/04/22 12:19:54;;;;;;;10.67;1.80;;;23.20;23.30;;;;;;5045753;28;20487;-72
2023/04/22 12:22:40;;;;;;;5.00;2.10;;;23.20;21.40;;;;;;5049535;28;20487;-73
2023/04/22 12:25:25;;;;;;;6.03;1.80;;;23.30;23.90;;;;;;5040932;28;20489;-74
2023/04/22 12:28:13;;;;;;;3.70;1.93;;;23.10;22.70;;;;;;5054319;28;20421;-73
2023/04/22 12:30:58;;;;;;;6.63;2.37;;;22.90;22.00;;;;;;5038951;28;20504;-74
2023/04/22 12:33:46;;;;;;;5.30;2.10;;;22.80;21.30;;;;;;5048034;28;20437;-73
2023/04/22 12:36:32;;;;;;;5.40;2.10;;;22.90;22.50;;;;;;5045618;28;20430;-72
2023/04/22 12:39:19;;;;;;;5.47;2.60;;;23.10;20.60;;;;;;5034116;28;20572;-70
2023/04/22 12:42:05;;;;;;;4.43;2.30;;;23.10;21.70;;;;;;5040730;28;20527;-73
2023/04/22 12:44:51;;;;;;;5.00;2.07;;;23.10;21.80;;;;;;5043943;28;20473;-73
2023/04/22 12:47:37;;;;;;;5.20;2.20;;;22.90;20.90;;;;;;5038882;28;21872;-73
2023/04/22 12:50:24;;;;;;;7.27;2.43;;;22.70;20.50;;;;;;5042710;28;20452;-72
2023/04/22 12:53:10;;;;;;;3.50;2.47;;;22.50;21.70;;;;;;5045011;28;20440;-73
2023/04/22 12:55:56;;;;;;;4.23;1.87;;;22.30;22.90;;;;;;5037589;28;20466;-73
2023/04/22 12:58:42;;;;;;;5.17;2.23;;;21.90;21.40;;;;;;5039523;28;20496;-73
2023/04/22 13:01:27;;;;;;;6.97;2.00;;;21.70;22.60;;;;;;5046594;28;20516;-73
2023/04/22 13:04:13;;;;;;;3.57;2.00;;;21.60;23.40;;;;;;5045184;28;20805;-72
2023/04/22 13:07:00;;;;;;;6.00;2.80;;;21.60;23.70;;;;;;5042620;28;20858;-71
2023/04/22 13:09:45;;;;;;;5.87;2.10;;;21.50;24.20;;;;;;5042867;28;20457;-73
2023/04/22 13:12:31;;;;;;;7.00;2.27;;;21.40;24.90;;;;;;5042089;28;20795;-72
2023/04/22 13:15:18;;;;;;;3.43;2.40;;;21.40;24.90;;;;;;5039319;28;20549;-73
2023/04/22 13:18:03;;;;;;;3.90;2.03;;;21.30;24.60;;;;;;5042607;28;20474;-73
2023/04/22 13:20:49;;;;;;;3.33;2.20;;;21.10;25.00;;;;;;5035218;28;20458;-73
2023/04/22 13:23:36;;;;;;;3.33;1.97;;;21.10;25.80;;;;;;5041004;28;20480;-73
2023/04/22 13:26:22;;;;;;;3.90;2.03;;;21.00;26.20;;;;;;5040339;28;20469;-71
2023/04/22 13:29:12;;;;;;;4.00;1.97;;;20.90;25.30;;;;;;5027737;28;20437;-71
2023/04/22 13:31:58;;;;;;;6.10;2.50;;;20.70;25.80;;;;;;5039125;28;20454;-73
2023/04/22 13:34:45;;;;;;;10.17;2.20;;;20.60;25.60;;;;;;5042712;28;20460;-72
2023/04/22 13:37:31;;;;;;;3.47;2.33;;;20.60;26.90;;;;;;5046184;28;20932;-73
2023/04/22 13:40:18;;;;;;;3.60;2.43;;;20.40;26.70;;;;;;5036546;28;20465;-73
2023/04/22 13:43:03;;;;;;;4.17;2.30;;;20.30;26.40;;;;;;5045229;28;20477;-73
2023/04/22 13:45:49;;;;;;;7.60;2.47;;;20.20;26.60;;;;;;5040182;28;20491;-73
2023/04/22 13:48:35;;;;;;;3.77;2.73;;;20.20;26.60;;;;;;5036965;28;20579;-72
2023/04/22 13:51:20;;;;;;;3.10;2.50;;;20.10;27.80;;;;;;5040359;28;20444;-72
2023/04/22 13:54:07;;;;;;;4.87;3.50;;;20.10;29.10;;;;;;5042834;28;20489;-69
2023/04/22 13:56:54;;;;;;;4.00;2.37;;;20.00;27.60;;;;;;5040148;28;20439;-73
2023/04/22 13:59:41;;;;;;;4.47;2.30;;;20.00;28.00;;;;;;5038918;28;20448;-73
2023/04/22 14:02:27;;;;;;;7.13;2.37;;;19.90;28.10;;;;;;5045795;28;20555;-72
2023/04/22 14:05:13;;;;;;;7.87;2.50;;;19.90;28.80;;;;;;5040434;28;20477;-72
2023/04/22 14:07:59;;;;;;;5.50;3.10;;;19.80;29.00;;;;;;5042856;28;20459;-73
2023/04/22 14:10:45;;;;;;;4.47;2.83;;;19.80;29.10;;;;;;5037233;28;20453;-73
2023/04/22 14:13:32;;;;;;;3.93;2.17;;;19.90;31.10;;;;;;5043904;28;20968;-73
2023/04/22 14:16:18;;;;;;;6.53;3.00;;;19.90;29.00;;;;;;5037425;28;20799;-73
2023/04/22 14:19:04;;;;;;;5.80;2.57;;;19.90;28.40;;;;;;5035611;28;20447;-70
2023/04/22 14:21:50;;;;;;;7.57;2.40;;;19.80;27.80;;;;;;5039100;28;20458;-73
2023/04/22 14:24:36;;;;;;;4.23;2.07;;;19.80;28.30;;;;;;5035201;28;20488;-72
2023/04/22 14:27:22;;;;;;;4.90;2.13;;;19.90;28.10;;;;;;5043129;28;20987;-72